sensor_id;sensor_type;location;lat;lon;timestamp;P1;durP1;ratioP1;P2;durP2;ratioP2
24739;SDS011;45234;48.148;17.128;2023-02-28T00:00:36;9.95;;;5.35;;
24739;SDS011;45234;48.148;17.128;2023-02-28T00:03:04;8.90;;;4.40;;
24739;SDS011;45234;48.148;17.128;2023-02-28T00:05:31;8.88;;;5.32;;
24739;SDS011;45234;48.148;17.128;2023-02-28T00:07:59;11.60;;;6.00;;
24739;SDS011;45234;48.148;17.128;2023-02-28T00:10:27;14.07;;;6.93;;
24739;SDS011;45234;48.148;17.128;2023-02-28T00:13:00;12.30;;;7.85;;
24739;SDS011;45234;48.148;17.128;2023-02-28T00:15:30;15.27;;;9.20;;
24739;SDS011;45234;48.148;17.128;2023-02-28T00:17:57;16.35;;;8.63;;
24739;SDS011;45234;48.148;17.128;2023-02-28T00:20:24;12.80;;;7.07;;
24739;SDS011;45234;48.148;17.128;2023-02-28T00:22:52;11.82;;;6.50;;
24739;SDS011;45234;48.148;17.128;2023-02-28T00:25:22;11.32;;;6.38;;
24739;SDS011;45234;48.148;17.128;2023-02-28T00:27:50;12.65;;;6.13;;
24739;SDS011;45234;48.148;17.128;2023-02-28T00:30:18;12.18;;;5.70;;
24739;SDS011;45234;48.148;17.128;2023-02-28T00:32:46;9.60;;;5.18;;
24739;SDS011;45234;48.148;17.128;2023-02-28T00:35:13;7.63;;;4.47;;
24739;SDS011;45234;48.148;17.128;2023-02-28T00:37:40;10.60;;;6.53;;
24739;SDS011;45234;48.148;17.128;2023-02-28T00:40:09;10.55;;;5.07;;
24739;SDS011;45234;48.148;17.128;2023-02-28T00:42:37;11.10;;;6.18;;
24739;SDS011;45234;48.148;17.128;2023-02-28T00:45:05;11.52;;;6.40;;
24739;SDS011;45234;48.148;17.128;2023-02-28T00:47:36;11.80;;;6.25;;
24739;SDS011;45234;48.148;17.128;2023-02-28T00:50:03;10.95;;;6.55;;
24739;SDS011;45234;48.148;17.128;2023-02-28T00:52:31;10.93;;;5.82;;
24739;SDS011;45234;48.148;17.128;2023-02-28T00:54:59;14.70;;;7.20;;
24739;SDS011;45234;48.148;17.128;2023-02-28T00:57:27;15.70;;;6.82;;
24739;SDS011;45234;48.148;17.128;2023-02-28T00:59:54;12.70;;;6.85;;
24739;SDS011;45234;48.148;17.128;2023-02-28T01:02:22;12.68;;;6.68;;
24739;SDS011;45234;48.148;17.128;2023-02-28T01:04:51;13.02;;;7.40;;
24739;SDS011;45234;48.148;17.128;2023-02-28T01:07:17;13.60;;;7.13;;
24739;SDS011;45234;48.148;17.128;2023-02-28T01:09:44;14.00;;;7.20;;
24739;SDS011;45234;48.148;17.128;2023-02-28T01:12:11;14.88;;;7.47;;
24739;SDS011;45234;48.148;17.128;2023-02-28T01:14:38;12.48;;;6.90;;
24739;SDS011;45234;48.148;17.128;2023-02-28T01:17:05;13.27;;;7.25;;
24739;SDS011;45234;48.148;17.128;2023-02-28T01:19:32;14.75;;;8.02;;
24739;SDS011;45234;48.148;17.128;2023-02-28T01:22:01;11.82;;;6.70;;
24739;SDS011;45234;48.148;17.128;2023-02-28T01:24:29;14.30;;;7.32;;
24739;SDS011;45234;48.148;17.128;2023-02-28T01:26:59;11.10;;;7.13;;
24739;SDS011;45234;48.148;17.128;2023-02-28T01:29:25;13.45;;;7.25;;
24739;SDS011;45234;48.148;17.128;2023-02-28T01:31:52;12.13;;;7.43;;
24739;SDS011;45234;48.148;17.128;2023-02-28T01:34:19;12.75;;;6.90;;
24739;SDS011;45234;48.148;17.128;2023-02-28T01:36:49;13.32;;;7.43;;
24739;SDS011;45234;48.148;17.128;2023-02-28T01:39:17;15.02;;;7.63;;
24739;SDS011;45234;48.148;17.128;2023-02-28T01:41:44;11.32;;;7.22;;
24739;SDS011;45234;48.148;17.128;2023-02-28T01:49:42;15.93;;;7.95;;
24739;SDS011;45234;48.148;17.128;2023-02-28T01:52:09;16.50;;;7.80;;
24739;SDS011;45234;48.148;17.128;2023-02-28T01:54:40;12.68;;;8.13;;
24739;SDS011;45234;48.148;17.128;2023-02-28T01:57:10;16.17;;;8.88;;
24739;SDS011;45234;48.148;17.128;2023-02-28T01:59:45;11.75;;;7.63;;
24739;SDS011;45234;48.148;17.128;2023-02-28T02:02:17;16.63;;;9.02;;
24739;SDS011;45234;48.148;17.128;2023-02-28T02:04:47;13.88;;;8.10;;
24739;SDS011;45234;48.148;17.128;2023-02-28T02:07:19;14.88;;;9.10;;
24739;SDS011;45234;48.148;17.128;2023-02-28T02:09:46;16.52;;;9.45;;
24739;SDS011;45234;48.148;17.128;2023-02-28T02:12:21;17.95;;;9.07;;
24739;SDS011;45234;48.148;17.128;2023-02-28T02:17:42;15.18;;;8.68;;
24739;SDS011;45234;48.148;17.128;2023-02-28T02:37:22;15.07;;;8.67;;
24739;SDS011;45234;48.148;17.128;2023-02-28T02:39:58;16.35;;;9.15;;
24739;SDS011;45234;48.148;17.128;2023-02-28T02:42:56;16.20;;;9.18;;
24739;SDS011;45234;48.148;17.128;2023-02-28T02:45:45;18.60;;;9.10;;
24739;SDS011;45234;48.148;17.128;2023-02-28T02:48:31;17.13;;;10.68;;
24739;SDS011;45234;48.148;17.128;2023-02-28T02:51:01;19.02;;;9.23;;
24739;SDS011;45234;48.148;17.128;2023-02-28T02:53:45;15.60;;;9.10;;
24739;SDS011;45234;48.148;17.128;2023-02-28T02:56:16;16.15;;;9.40;;
24739;SDS011;45234;48.148;17.128;2023-02-28T02:58:47;18.33;;;9.40;;
24739;SDS011;45234;48.148;17.128;2023-02-28T03:01:21;16.67;;;9.77;;
24739;SDS011;45234;48.148;17.128;2023-02-28T03:03:58;16.10;;;8.60;;
24739;SDS011;45234;48.148;17.128;2023-02-28T03:06:31;17.85;;;9.85;;
24739;SDS011;45234;48.148;17.128;2023-02-28T03:08:57;15.05;;;8.98;;
24739;SDS011;45234;48.148;17.128;2023-02-28T03:11:26;17.25;;;10.15;;
24739;SDS011;45234;48.148;17.128;2023-02-28T03:14:16;20.17;;;10.10;;
24739;SDS011;45234;48.148;17.128;2023-02-28T03:17:03;18.02;;;9.68;;
24739;SDS011;45234;48.148;17.128;2023-02-28T03:20:07;15.70;;;9.38;;
24739;SDS011;45234;48.148;17.128;2023-02-28T03:23:04;14.65;;;9.38;;
24739;SDS011;45234;48.148;17.128;2023-02-28T03:34:05;17.10;;;9.73;;
24739;SDS011;45234;48.148;17.128;2023-02-28T03:36:41;19.85;;;10.73;;
24739;SDS011;45234;48.148;17.128;2023-02-28T03:39:19;18.05;;;10.00;;
24739;SDS011;45234;48.148;17.128;2023-02-28T03:41:57;16.52;;;9.38;;
24739;SDS011;45234;48.148;17.128;2023-02-28T03:44:29;16.53;;;10.30;;
24739;SDS011;45234;48.148;17.128;2023-02-28T03:52:19;18.48;;;11.10;;
24739;SDS011;45234;48.148;17.128;2023-02-28T03:54:52;16.50;;;9.90;;
24739;SDS011;45234;48.148;17.128;2023-02-28T03:57:33;20.05;;;10.35;;
24739;SDS011;45234;48.148;17.128;2023-02-28T04:00:25;17.70;;;10.65;;
24739;SDS011;45234;48.148;17.128;2023-02-28T04:03:00;19.98;;;10.95;;
24739;SDS011;45234;48.148;17.128;2023-02-28T04:05:28;18.85;;;11.38;;
24739;SDS011;45234;48.148;17.128;2023-02-28T04:08:03;21.27;;;11.02;;
24739;SDS011;45234;48.148;17.128;2023-02-28T04:10:31;19.70;;;10.48;;
24739;SDS011;45234;48.148;17.128;2023-02-28T04:12:58;18.20;;;10.23;;
24739;SDS011;45234;48.148;17.128;2023-02-28T04:15:25;22.65;;;12.07;;
24739;SDS011;45234;48.148;17.128;2023-02-28T04:17:53;17.65;;;10.52;;
24739;SDS011;45234;48.148;17.128;2023-02-28T04:20:19;21.27;;;10.65;;
24739;SDS011;45234;48.148;17.128;2023-02-28T04:22:46;20.30;;;11.40;;
24739;SDS011;45234;48.148;17.128;2023-02-28T04:25:13;21.55;;;11.30;;
24739;SDS011;45234;48.148;17.128;2023-02-28T04:27:40;21.45;;;11.10;;
24739;SDS011;45234;48.148;17.128;2023-02-28T04:30:07;24.05;;;11.30;;
24739;SDS011;45234;48.148;17.128;2023-02-28T04:32:35;21.13;;;10.82;;
24739;SDS011;45234;48.148;17.128;2023-02-28T04:35:02;18.73;;;11.02;;
24739;SDS011;45234;48.148;17.128;2023-02-28T04:37:29;24.42;;;12.07;;
24739;SDS011;45234;48.148;17.128;2023-02-28T04:40:00;20.75;;;11.70;;
24739;SDS011;45234;48.148;17.128;2023-02-28T04:42:28;19.88;;;11.63;;
24739;SDS011;45234;48.148;17.128;2023-02-28T04:45:01;21.67;;;10.40;;
24739;SDS011;45234;48.148;17.128;2023-02-28T04:47:29;19.23;;;10.90;;
24739;SDS011;45234;48.148;17.128;2023-02-28T04:49:56;19.77;;;10.68;;
24739;SDS011;45234;48.148;17.128;2023-02-28T04:52:23;19.52;;;10.00;;
24739;SDS011;45234;48.148;17.128;2023-02-28T04:54:50;22.83;;;10.95;;
24739;SDS011;45234;48.148;17.128;2023-02-28T04:57:17;17.02;;;9.55;;
24739;SDS011;45234;48.148;17.128;2023-02-28T04:59:43;19.08;;;10.40;;
24739;SDS011;45234;48.148;17.128;2023-02-28T05:02:10;19.20;;;10.25;;
24739;SDS011;45234;48.148;17.128;2023-02-28T05:04:37;19.05;;;9.82;;
24739;SDS011;45234;48.148;17.128;2023-02-28T05:07:04;21.45;;;9.88;;
24739;SDS011;45234;48.148;17.128;2023-02-28T05:09:31;16.73;;;9.50;;
24739;SDS011;45234;48.148;17.128;2023-02-28T05:11:58;17.67;;;9.13;;
24739;SDS011;45234;48.148;17.128;2023-02-28T05:14:25;17.33;;;9.60;;
24739;SDS011;45234;48.148;17.128;2023-02-28T05:16:52;17.75;;;9.48;;
24739;SDS011;45234;48.148;17.128;2023-02-28T05:19:19;21.27;;;10.23;;
24739;SDS011;45234;48.148;17.128;2023-02-28T05:21:51;21.48;;;10.07;;
24739;SDS011;45234;48.148;17.128;2023-02-28T05:24:19;19.17;;;10.45;;
24739;SDS011;45234;48.148;17.128;2023-02-28T05:26:50;17.92;;;10.65;;
24739;SDS011;45234;48.148;17.128;2023-02-28T05:29:18;17.67;;;9.15;;
24739;SDS011;45234;48.148;17.128;2023-02-28T05:31:45;17.65;;;9.40;;
24739;SDS011;45234;48.148;17.128;2023-02-28T05:34:16;18.58;;;9.70;;
24739;SDS011;45234;48.148;17.128;2023-02-28T05:36:43;21.27;;;9.60;;
24739;SDS011;45234;48.148;17.128;2023-02-28T05:39:10;19.63;;;10.02;;
24739;SDS011;45234;48.148;17.128;2023-02-28T05:41:39;20.08;;;9.73;;
24739;SDS011;45234;48.148;17.128;2023-02-28T05:44:07;18.15;;;10.18;;
24739;SDS011;45234;48.148;17.128;2023-02-28T05:46:34;15.43;;;9.27;;
24739;SDS011;45234;48.148;17.128;2023-02-28T05:49:01;18.20;;;9.75;;
24739;SDS011;45234;48.148;17.128;2023-02-28T05:51:28;16.55;;;9.00;;
24739;SDS011;45234;48.148;17.128;2023-02-28T05:53:58;18.50;;;10.13;;
24739;SDS011;45234;48.148;17.128;2023-02-28T05:56:26;20.20;;;10.95;;
24739;SDS011;45234;48.148;17.128;2023-02-28T05:58:53;14.48;;;9.25;;
24739;SDS011;45234;48.148;17.128;2023-02-28T06:01:24;20.88;;;10.10;;
24739;SDS011;45234;48.148;17.128;2023-02-28T06:04:00;19.58;;;10.70;;
24739;SDS011;45234;48.148;17.128;2023-02-28T06:06:29;18.65;;;9.73;;
24739;SDS011;45234;48.148;17.128;2023-02-28T06:08:56;19.00;;;10.10;;
24739;SDS011;45234;48.148;17.128;2023-02-28T06:11:23;16.58;;;9.40;;
24739;SDS011;45234;48.148;17.128;2023-02-28T06:13:54;15.43;;;9.05;;
24739;SDS011;45234;48.148;17.128;2023-02-28T06:16:26;19.42;;;10.45;;
24739;SDS011;45234;48.148;17.128;2023-02-28T06:18:54;17.65;;;10.20;;
24739;SDS011;45234;48.148;17.128;2023-02-28T06:21:23;16.17;;;9.65;;
24739;SDS011;45234;48.148;17.128;2023-02-28T06:23:50;18.85;;;10.18;;
24739;SDS011;45234;48.148;17.128;2023-02-28T06:26:17;18.58;;;9.45;;
24739;SDS011;45234;48.148;17.128;2023-02-28T06:28:45;16.02;;;9.15;;
24739;SDS011;45234;48.148;17.128;2023-02-28T06:31:13;18.05;;;9.32;;
24739;SDS011;45234;48.148;17.128;2023-02-28T06:33:42;17.35;;;9.30;;
24739;SDS011;45234;48.148;17.128;2023-02-28T06:36:11;16.30;;;8.90;;
24739;SDS011;45234;48.148;17.128;2023-02-28T06:38:39;17.63;;;9.38;;
24739;SDS011;45234;48.148;17.128;2023-02-28T06:41:07;16.35;;;9.00;;
24739;SDS011;45234;48.148;17.128;2023-02-28T06:43:35;16.45;;;8.90;;
24739;SDS011;45234;48.148;17.128;2023-02-28T06:46:05;17.77;;;9.43;;
24739;SDS011;45234;48.148;17.128;2023-02-28T06:48:34;21.58;;;9.93;;
24739;SDS011;45234;48.148;17.128;2023-02-28T06:51:05;13.57;;;8.52;;
24739;SDS011;45234;48.148;17.128;2023-02-28T06:56:05;16.70;;;9.65;;
24739;SDS011;45234;48.148;17.128;2023-02-28T06:58:34;18.13;;;9.13;;
24739;SDS011;45234;48.148;17.128;2023-02-28T07:01:01;18.20;;;9.57;;
24739;SDS011;45234;48.148;17.128;2023-02-28T07:03:29;22.65;;;8.55;;
24739;SDS011;45234;48.148;17.128;2023-02-28T07:05:59;15.98;;;9.55;;
24739;SDS011;45234;48.148;17.128;2023-02-28T07:08:26;14.88;;;8.48;;
24739;SDS011;45234;48.148;17.128;2023-02-28T07:10:53;15.88;;;10.00;;
24739;SDS011;45234;48.148;17.128;2023-02-28T07:13:22;15.73;;;9.77;;
24739;SDS011;45234;48.148;17.128;2023-02-28T07:15:53;16.70;;;10.65;;
24739;SDS011;45234;48.148;17.128;2023-02-28T07:18:20;18.38;;;10.18;;
24739;SDS011;45234;48.148;17.128;2023-02-28T07:20:47;15.20;;;9.98;;
24739;SDS011;45234;48.148;17.128;2023-02-28T07:23:14;18.23;;;10.00;;
24739;SDS011;45234;48.148;17.128;2023-02-28T07:25:41;17.02;;;9.75;;
24739;SDS011;45234;48.148;17.128;2023-02-28T07:28:07;19.95;;;10.57;;
24739;SDS011;45234;48.148;17.128;2023-02-28T07:30:34;15.90;;;10.15;;
24739;SDS011;45234;48.148;17.128;2023-02-28T07:33:01;13.68;;;9.95;;
24739;SDS011;45234;48.148;17.128;2023-02-28T07:35:29;14.52;;;10.68;;
24739;SDS011;45234;48.148;17.128;2023-02-28T07:37:58;19.23;;;11.00;;
24739;SDS011;45234;48.148;17.128;2023-02-28T07:40:25;17.20;;;10.85;;
24739;SDS011;45234;48.148;17.128;2023-02-28T07:42:53;14.55;;;10.27;;
24739;SDS011;45234;48.148;17.128;2023-02-28T07:45:20;15.70;;;10.85;;
24739;SDS011;45234;48.148;17.128;2023-02-28T07:47:47;19.95;;;11.45;;
24739;SDS011;45234;48.148;17.128;2023-02-28T07:50:15;18.13;;;11.40;;
24739;SDS011;45234;48.148;17.128;2023-02-28T07:52:42;16.50;;;10.32;;
24739;SDS011;45234;48.148;17.128;2023-02-28T07:55:09;20.55;;;10.75;;
24739;SDS011;45234;48.148;17.128;2023-02-28T07:57:37;18.60;;;11.27;;
24739;SDS011;45234;48.148;17.128;2023-02-28T08:00:05;18.30;;;10.95;;
24739;SDS011;45234;48.148;17.128;2023-02-28T08:02:39;17.75;;;10.93;;
24739;SDS011;45234;48.148;17.128;2023-02-28T08:05:06;18.50;;;10.25;;
24739;SDS011;45234;48.148;17.128;2023-02-28T08:07:33;18.02;;;11.43;;
24739;SDS011;45234;48.148;17.128;2023-02-28T08:10:01;21.33;;;10.93;;
24739;SDS011;45234;48.148;17.128;2023-02-28T08:12:28;16.20;;;10.88;;
24739;SDS011;45234;48.148;17.128;2023-02-28T08:14:55;21.27;;;11.68;;
24739;SDS011;45234;48.148;17.128;2023-02-28T08:17:22;16.85;;;11.13;;
24739;SDS011;45234;48.148;17.128;2023-02-28T08:19:49;17.73;;;10.70;;
24739;SDS011;45234;48.148;17.128;2023-02-28T08:22:15;15.55;;;11.18;;
24739;SDS011;45234;48.148;17.128;2023-02-28T08:24:43;16.30;;;11.40;;
24739;SDS011;45234;48.148;17.128;2023-02-28T08:27:10;18.05;;;10.57;;
24739;SDS011;45234;48.148;17.128;2023-02-28T08:29:37;16.20;;;10.93;;
24739;SDS011;45234;48.148;17.128;2023-02-28T08:32:05;16.90;;;10.90;;
24739;SDS011;45234;48.148;17.128;2023-02-28T08:34:46;19.60;;;11.00;;
24739;SDS011;45234;48.148;17.128;2023-02-28T08:37:13;16.60;;;11.82;;
24739;SDS011;45234;48.148;17.128;2023-02-28T08:39:40;18.80;;;11.40;;
24739;SDS011;45234;48.148;17.128;2023-02-28T08:42:07;15.85;;;11.70;;
24739;SDS011;45234;48.148;17.128;2023-02-28T08:44:34;19.75;;;11.55;;
24739;SDS011;45234;48.148;17.128;2023-02-28T08:47:01;17.75;;;11.43;;
24739;SDS011;45234;48.148;17.128;2023-02-28T08:49:27;16.98;;;11.18;;
24739;SDS011;45234;48.148;17.128;2023-02-28T08:51:54;15.95;;;11.88;;
24739;SDS011;45234;48.148;17.128;2023-02-28T08:54:23;18.58;;;11.65;;
24739;SDS011;45234;48.148;17.128;2023-02-28T08:56:50;16.02;;;12.10;;
24739;SDS011;45234;48.148;17.128;2023-02-28T08:59:17;16.63;;;12.48;;
24739;SDS011;45234;48.148;17.128;2023-02-28T09:01:44;17.20;;;11.27;;
24739;SDS011;45234;48.148;17.128;2023-02-28T09:04:10;19.30;;;14.13;;
24739;SDS011;45234;48.148;17.128;2023-02-28T09:06:41;19.65;;;12.85;;
24739;SDS011;45234;48.148;17.128;2023-02-28T09:09:10;18.80;;;12.10;;
24739;SDS011;45234;48.148;17.128;2023-02-28T09:11:36;20.42;;;13.98;;
24739;SDS011;45234;48.148;17.128;2023-02-28T09:14:03;20.75;;;13.82;;
24739;SDS011;45234;48.148;17.128;2023-02-28T09:16:30;17.70;;;12.93;;
24739;SDS011;45234;48.148;17.128;2023-02-28T09:18:59;15.57;;;10.93;;
24739;SDS011;45234;48.148;17.128;2023-02-28T09:21:26;17.33;;;13.25;;
24739;SDS011;45234;48.148;17.128;2023-02-28T09:23:54;16.17;;;12.55;;
24739;SDS011;45234;48.148;17.128;2023-02-28T09:26:24;18.08;;;13.43;;
24739;SDS011;45234;48.148;17.128;2023-02-28T09:29:07;18.15;;;12.57;;
24739;SDS011;45234;48.148;17.128;2023-02-28T09:31:34;20.33;;;13.02;;
24739;SDS011;45234;48.148;17.128;2023-02-28T09:34:01;19.42;;;13.60;;
24739;SDS011;45234;48.148;17.128;2023-02-28T09:36:29;22.88;;;15.80;;
24739;SDS011;45234;48.148;17.128;2023-02-28T09:39:09;21.98;;;16.90;;
24739;SDS011;45234;48.148;17.128;2023-02-28T09:41:39;21.10;;;15.43;;
24739;SDS011;45234;48.148;17.128;2023-02-28T09:44:27;17.25;;;14.32;;
24739;SDS011;45234;48.148;17.128;2023-02-28T09:47:44;19.83;;;15.38;;
24739;SDS011;45234;48.148;17.128;2023-02-28T09:49:54;20.45;;;14.45;;
24739;SDS011;45234;48.148;17.128;2023-02-28T09:52:29;19.17;;;13.57;;
24739;SDS011;45234;48.148;17.128;2023-02-28T09:55:18;21.17;;;14.90;;
24739;SDS011;45234;48.148;17.128;2023-02-28T09:57:50;15.32;;;11.73;;
24739;SDS011;45234;48.148;17.128;2023-02-28T10:00:20;20.35;;;12.95;;
24739;SDS011;45234;48.148;17.128;2023-02-28T10:11:21;18.63;;;11.63;;
24739;SDS011;45234;48.148;17.128;2023-02-28T10:13:57;16.88;;;11.52;;
24739;SDS011;45234;48.148;17.128;2023-02-28T10:22:17;19.90;;;13.30;;
24739;SDS011;45234;48.148;17.128;2023-02-28T10:24:49;16.15;;;12.82;;
24739;SDS011;45234;48.148;17.128;2023-02-28T10:27:28;18.25;;;12.45;;
24739;SDS011;45234;48.148;17.128;2023-02-28T10:29:58;15.07;;;12.13;;
24739;SDS011;45234;48.148;17.128;2023-02-28T10:32:30;20.02;;;11.90;;
24739;SDS011;45234;48.148;17.128;2023-02-28T10:37:41;18.20;;;10.45;;
24739;SDS011;45234;48.148;17.128;2023-02-28T10:40:24;14.05;;;10.10;;
24739;SDS011;45234;48.148;17.128;2023-02-28T10:45:30;16.98;;;9.70;;
24739;SDS011;45234;48.148;17.128;2023-02-28T10:48:50;12.98;;;9.15;;
24739;SDS011;45234;48.148;17.128;2023-02-28T10:50:59;17.30;;;9.63;;
24739;SDS011;45234;48.148;17.128;2023-02-28T10:53:37;15.48;;;9.77;;
24739;SDS011;45234;48.148;17.128;2023-02-28T10:56:25;19.15;;;12.20;;
24739;SDS011;45234;48.148;17.128;2023-02-28T10:58:58;20.10;;;13.45;;
24739;SDS011;45234;48.148;17.128;2023-02-28T11:04:01;21.42;;;12.82;;
24739;SDS011;45234;48.148;17.128;2023-02-28T11:06:29;18.73;;;11.68;;
24739;SDS011;45234;48.148;17.128;2023-02-28T11:08:59;16.45;;;10.00;;
24739;SDS011;45234;48.148;17.128;2023-02-28T11:11:30;15.10;;;9.88;;
24739;SDS011;45234;48.148;17.128;2023-02-28T11:14:15;16.45;;;10.80;;
24739;SDS011;45234;48.148;17.128;2023-02-28T11:16:49;15.63;;;9.32;;
24739;SDS011;45234;48.148;17.128;2023-02-28T11:19:19;14.77;;;9.95;;
24739;SDS011;45234;48.148;17.128;2023-02-28T11:22:02;15.55;;;10.88;;
24739;SDS011;45234;48.148;17.128;2023-02-28T11:24:35;16.05;;;10.70;;
24739;SDS011;45234;48.148;17.128;2023-02-28T11:27:23;14.68;;;9.75;;
24739;SDS011;45234;48.148;17.128;2023-02-28T11:29:58;18.75;;;10.95;;
24739;SDS011;45234;48.148;17.128;2023-02-28T11:32:27;16.48;;;11.68;;
24739;SDS011;45234;48.148;17.128;2023-02-28T11:37:49;17.27;;;10.70;;
24739;SDS011;45234;48.148;17.128;2023-02-28T11:40:17;17.98;;;10.68;;
24739;SDS011;45234;48.148;17.128;2023-02-28T11:53:55;12.43;;;8.73;;
24739;SDS011;45234;48.148;17.128;2023-02-28T11:56:53;15.07;;;9.35;;
24739;SDS011;45234;48.148;17.128;2023-02-28T11:59:48;14.48;;;9.45;;
24739;SDS011;45234;48.148;17.128;2023-02-28T12:05:26;15.45;;;10.13;;
24739;SDS011;45234;48.148;17.128;2023-02-28T12:08:04;14.63;;;9.30;;
24739;SDS011;45234;48.148;17.128;2023-02-28T12:16:34;16.48;;;9.57;;
24739;SDS011;45234;48.148;17.128;2023-02-28T12:19:26;14.35;;;9.95;;
24739;SDS011;45234;48.148;17.128;2023-02-28T12:27:55;15.27;;;9.23;;
24739;SDS011;45234;48.148;17.128;2023-02-28T12:30:24;13.25;;;8.80;;
24739;SDS011;45234;48.148;17.128;2023-02-28T12:35:41;14.13;;;8.93;;
24739;SDS011;45234;48.148;17.128;2023-02-28T12:38:12;16.45;;;8.90;;
24739;SDS011;45234;48.148;17.128;2023-02-28T12:40:44;14.50;;;8.85;;
24739;SDS011;45234;48.148;17.128;2023-02-28T12:43:33;12.93;;;8.82;;
24739;SDS011;45234;48.148;17.128;2023-02-28T12:46:14;13.90;;;8.85;;
24739;SDS011;45234;48.148;17.128;2023-02-28T12:51:50;12.90;;;8.20;;
24739;SDS011;45234;48.148;17.128;2023-02-28T12:57:18;15.30;;;8.50;;
24739;SDS011;45234;48.148;17.128;2023-02-28T12:59:57;12.70;;;7.88;;
24739;SDS011;45234;48.148;17.128;2023-02-28T13:10:54;13.55;;;8.20;;
24739;SDS011;45234;48.148;17.128;2023-02-28T13:13:21;13.07;;;8.48;;
24739;SDS011;45234;48.148;17.128;2023-02-28T13:15:58;10.88;;;7.65;;
24739;SDS011;45234;48.148;17.128;2023-02-28T13:18:30;14.68;;;8.90;;
24739;SDS011;45234;48.148;17.128;2023-02-28T13:21:26;12.70;;;7.60;;
24739;SDS011;45234;48.148;17.128;2023-02-28T13:27:10;12.93;;;8.27;;
24739;SDS011;45234;48.148;17.128;2023-02-28T13:34:37;13.73;;;9.30;;
24739;SDS011;45234;48.148;17.128;2023-02-28T13:47:33;13.95;;;8.88;;
24739;SDS011;45234;48.148;17.128;2023-02-28T14:03:38;16.17;;;8.80;;
24739;SDS011;45234;48.148;17.128;2023-02-28T14:09:16;15.85;;;8.30;;
24739;SDS011;45234;48.148;17.128;2023-02-28T14:11:56;15.65;;;9.45;;
24739;SDS011;45234;48.148;17.128;2023-02-28T14:17:15;14.15;;;8.82;;
24739;SDS011;45234;48.148;17.128;2023-02-28T14:19:46;10.80;;;7.70;;
24739;SDS011;45234;48.148;17.128;2023-02-28T14:25:25;14.77;;;7.95;;
24739;SDS011;45234;48.148;17.128;2023-02-28T14:31:00;13.88;;;8.02;;
24739;SDS011;45234;48.148;17.128;2023-02-28T14:38:48;14.68;;;8.55;;
24739;SDS011;45234;48.148;17.128;2023-02-28T14:41:31;12.52;;;8.07;;
24739;SDS011;45234;48.148;17.128;2023-02-28T14:44:12;13.88;;;8.20;;
24739;SDS011;45234;48.148;17.128;2023-02-28T14:46:50;12.27;;;8.75;;
24739;SDS011;45234;48.148;17.128;2023-02-28T14:49:31;13.88;;;8.60;;
24739;SDS011;45234;48.148;17.128;2023-02-28T14:52:42;12.20;;;8.05;;
24739;SDS011;45234;48.148;17.128;2023-02-28T14:54:54;13.50;;;8.25;;
24739;SDS011;45234;48.148;17.128;2023-02-28T14:57:30;10.82;;;8.13;;
24739;SDS011;45234;48.148;17.128;2023-02-28T15:00:16;10.98;;;8.35;;
24739;SDS011;45234;48.148;17.128;2023-02-28T15:03:00;12.93;;;8.13;;
24739;SDS011;45234;48.148;17.128;2023-02-28T15:05:57;11.88;;;7.47;;
24739;SDS011;45234;48.148;17.128;2023-02-28T15:08:29;12.95;;;8.13;;
24739;SDS011;45234;48.148;17.128;2023-02-28T15:11:21;10.73;;;7.43;;
24739;SDS011;45234;48.148;17.128;2023-02-28T15:13:52;15.10;;;7.57;;
24739;SDS011;45234;48.148;17.128;2023-02-28T15:16:23;12.70;;;7.80;;
24739;SDS011;45234;48.148;17.128;2023-02-28T15:19:05;15.32;;;8.20;;
24739;SDS011;45234;48.148;17.128;2023-02-28T15:21:49;13.38;;;8.60;;
24739;SDS011;45234;48.148;17.128;2023-02-28T15:24:37;13.43;;;7.85;;
24739;SDS011;45234;48.148;17.128;2023-02-28T15:27:14;12.93;;;8.82;;
24739;SDS011;45234;48.148;17.128;2023-02-28T15:30:12;14.32;;;9.05;;
24739;SDS011;45234;48.148;17.128;2023-02-28T15:32:43;15.43;;;8.85;;
24739;SDS011;45234;48.148;17.128;2023-02-28T15:38:29;13.60;;;8.43;;
24739;SDS011;45234;48.148;17.128;2023-02-28T15:40:49;15.68;;;9.40;;
24739;SDS011;45234;48.148;17.128;2023-02-28T15:43:37;14.68;;;9.48;;
24739;SDS011;45234;48.148;17.128;2023-02-28T15:46:10;15.13;;;9.35;;
24739;SDS011;45234;48.148;17.128;2023-02-28T15:48:50;13.57;;;9.10;;
24739;SDS011;45234;48.148;17.128;2023-02-28T15:54:02;16.30;;;9.25;;
24739;SDS011;45234;48.148;17.128;2023-02-28T15:56:36;14.55;;;8.15;;
24739;SDS011;45234;48.148;17.128;2023-02-28T15:59:29;15.90;;;7.78;;
24739;SDS011;45234;48.148;17.128;2023-02-28T16:07:28;18.33;;;9.57;;
24739;SDS011;45234;48.148;17.128;2023-02-28T16:09:56;16.48;;;9.50;;
24739;SDS011;45234;48.148;17.128;2023-02-28T16:12:28;17.02;;;9.73;;
24739;SDS011;45234;48.148;17.128;2023-02-28T16:14:57;13.40;;;9.25;;
24739;SDS011;45234;48.148;17.128;2023-02-28T16:17:31;12.82;;;8.07;;
24739;SDS011;45234;48.148;17.128;2023-02-28T16:20:43;15.50;;;9.32;;
24739;SDS011;45234;48.148;17.128;2023-02-28T16:22:54;15.63;;;8.63;;
24739;SDS011;45234;48.148;17.128;2023-02-28T16:25:26;14.20;;;7.78;;
24739;SDS011;45234;48.148;17.128;2023-02-28T16:28:03;14.18;;;8.10;;
24739;SDS011;45234;48.148;17.128;2023-02-28T16:30:38;14.88;;;8.73;;
24739;SDS011;45234;48.148;17.128;2023-02-28T16:33:07;14.90;;;8.07;;
24739;SDS011;45234;48.148;17.128;2023-02-28T16:35:36;14.35;;;7.90;;
24739;SDS011;45234;48.148;17.128;2023-02-28T16:38:03;16.75;;;8.15;;
24739;SDS011;45234;48.148;17.128;2023-02-28T16:40:32;19.63;;;9.98;;
24739;SDS011;45234;48.148;17.128;2023-02-28T16:43:05;15.45;;;9.23;;
24739;SDS011;45234;48.148;17.128;2023-02-28T16:45:35;14.63;;;9.18;;
24739;SDS011;45234;48.148;17.128;2023-02-28T16:48:02;17.27;;;8.38;;
24739;SDS011;45234;48.148;17.128;2023-02-28T16:50:30;14.73;;;8.45;;
24739;SDS011;45234;48.148;17.128;2023-02-28T16:52:59;17.20;;;8.70;;
24739;SDS011;45234;48.148;17.128;2023-02-28T16:55:26;15.40;;;8.77;;
24739;SDS011;45234;48.148;17.128;2023-02-28T16:57:54;15.95;;;9.23;;
24739;SDS011;45234;48.148;17.128;2023-02-28T17:00:25;14.48;;;7.97;;
24739;SDS011;45234;48.148;17.128;2023-02-28T17:02:59;13.55;;;7.65;;
24739;SDS011;45234;48.148;17.128;2023-02-28T17:05:33;15.95;;;8.98;;
24739;SDS011;45234;48.148;17.128;2023-02-28T17:08:04;13.07;;;8.45;;
24739;SDS011;45234;48.148;17.128;2023-02-28T17:10:31;14.73;;;8.63;;
24739;SDS011;45234;48.148;17.128;2023-02-28T17:12:58;18.40;;;8.73;;
24739;SDS011;45234;48.148;17.128;2023-02-28T17:15:40;18.05;;;9.93;;
24739;SDS011;45234;48.148;17.128;2023-02-28T17:18:13;19.67;;;12.75;;
24739;SDS011;45234;48.148;17.128;2023-02-28T17:20:45;15.45;;;9.93;;
24739;SDS011;45234;48.148;17.128;2023-02-28T17:23:12;14.50;;;9.30;;
24739;SDS011;45234;48.148;17.128;2023-02-28T17:25:39;15.27;;;9.35;;
24739;SDS011;45234;48.148;17.128;2023-02-28T17:28:06;17.02;;;9.32;;
24739;SDS011;45234;48.148;17.128;2023-02-28T17:30:34;17.02;;;10.25;;
24739;SDS011;45234;48.148;17.128;2023-02-28T17:33:03;15.43;;;9.18;;